createdAt,value
2017-05-27T00:00:40.618Z,73.40
2017-05-27T00:03:09.611Z,73.40
2017-05-27T00:05:39.107Z,73.40
2017-05-27T00:08:08.065Z,73.40
2017-05-27T00:10:37.038Z,73.60
2017-05-27T00:13:06.376Z,73.90
2017-05-27T00:15:35.332Z,74.60
2017-05-27T00:18:04.291Z,74.00
2017-05-27T00:20:33.608Z,74.00
2017-05-27T00:23:02.610Z,74.20
2017-05-27T00:25:31.606Z,74.40
2017-05-27T00:28:00.971Z,74.90
2017-05-27T00:30:29.930Z,74.70
2017-05-27T00:32:58.872Z,74.80
2017-05-27T00:35:27.443Z,74.70
2017-05-27T00:37:56.418Z,75.20
2017-05-27T00:40:25.388Z,74.90
2017-05-27T00:42:54.775Z,75.30
2017-05-27T00:45:23.758Z,75.30
2017-05-27T00:47:52.716Z,75.00
2017-05-27T00:50:22.115Z,75.10
2017-05-27T00:52:51.098Z,75.70
2017-05-27T00:55:20.058Z,75.80
2017-05-27T00:57:49.370Z,75.90
2017-05-27T01:00:18.327Z,76.00
2017-05-27T01:02:46.538Z,76.00
2017-05-27T01:05:15.839Z,76.40
2017-05-27T01:07:44.806Z,76.50
2017-05-27T01:10:13.870Z,76.50
2017-05-27T01:12:43.223Z,76.60
2017-05-27T01:15:12.175Z,76.70
2017-05-27T01:17:41.120Z,76.70
2017-05-27T01:20:10.515Z,77.10
2017-05-27T01:22:39.471Z,77.00
2017-05-27T01:25:08.429Z,76.90
2017-05-27T01:27:37.925Z,76.90
2017-05-27T01:30:06.909Z,77.50
2017-05-27T01:32:35.945Z,77.40
2017-05-27T01:35:04.590Z,77.40
2017-05-27T01:37:33.627Z,77.30
2017-05-27T01:40:02.596Z,77.50
2017-05-27T01:42:32.054Z,77.70
2017-05-27T01:45:00.997Z,77.80
2017-05-27T01:47:29.957Z,77.90
2017-05-27T01:49:59.427Z,78.00
2017-05-27T01:52:28.411Z,78.00
2017-05-27T01:54:57.371Z,78.20
2017-05-27T01:57:26.854Z,78.40
2017-05-27T01:59:55.814Z,78.30
2017-05-27T02:02:24.765Z,78.40
2017-05-27T02:04:54.064Z,78.90
2017-05-27T02:07:23.068Z,78.50
2017-05-27T02:09:52.033Z,78.70
2017-05-27T02:12:21.362Z,78.60
2017-05-27T02:14:50.326Z,78.70
2017-05-27T02:17:19.261Z,78.90
2017-05-27T02:19:48.559Z,78.80
2017-05-27T02:22:16.766Z,78.80
2017-05-27T02:24:45.719Z,78.40
2017-05-27T02:27:15.025Z,78.90
2017-05-27T02:29:43.976Z,79.40
2017-05-27T02:32:12.920Z,79.40
2017-05-27T02:34:42.212Z,79.30
2017-05-27T02:37:11.156Z,79.20
2017-05-27T02:39:40.159Z,79.30
2017-05-27T02:42:09.497Z,79.20
2017-05-27T02:44:38.468Z,79.40
2017-05-27T02:47:06.676Z,79.40
2017-05-27T02:49:36.158Z,79.30
2017-05-27T02:52:04.366Z,79.20
2017-05-27T02:54:33.342Z,79.40
2017-05-27T02:57:02.670Z,79.60
2017-05-27T02:59:31.664Z,79.70
2017-05-27T03:02:00.675Z,79.90
2017-05-27T03:04:30.118Z,80.10
2017-05-27T03:06:58.306Z,80.10
2017-05-27T03:09:27.253Z,80.20
2017-05-27T03:11:56.600Z,80.20
2017-05-27T03:14:24.795Z,80.20
2017-05-27T03:16:53.770Z,80.10
2017-05-27T03:19:23.237Z,80.20
2017-05-27T03:21:52.195Z,80.20
2017-05-27T03:24:21.159Z,80.20
2017-05-27T03:26:50.507Z,80.20
2017-05-27T03:29:19.468Z,80.20
2017-05-27T03:31:48.418Z,80.20
2017-05-27T03:34:17.815Z,80.30
2017-05-27T03:36:46.772Z,80.30
2017-05-27T03:39:15.719Z,80.00
2017-05-27T03:41:45.092Z,79.80
2017-05-27T03:44:14.094Z,78.60
2017-05-27T03:46:43.055Z,77.30
2017-05-27T03:49:12.476Z,77.00
2017-05-27T03:51:41.493Z,76.90
2017-05-27T03:54:10.491Z,77.00
2017-05-27T03:56:39.867Z,77.80
2017-05-27T03:59:08.859Z,77.50
2017-05-27T04:01:37.901Z,77.80
2017-05-27T04:04:07.406Z,77.90
2017-05-27T04:06:36.419Z,78.20
2017-05-27T04:09:05.385Z,78.40
2017-05-27T04:11:34.845Z,78.60
2017-05-27T04:14:03.066Z,78.60
2017-05-27T04:16:32.032Z,78.60
2017-05-27T04:19:01.428Z,78.70
2017-05-27T04:21:30.375Z,78.90
2017-05-27T04:23:59.358Z,78.80
2017-05-27T04:26:28.796Z,78.90
2017-05-27T04:28:57.861Z,78.80
2017-05-27T04:31:26.854Z,78.50
2017-05-27T04:33:56.190Z,78.50
2017-05-27T04:36:25.144Z,78.50
2017-05-27T04:38:54.115Z,78.70
2017-05-27T04:41:23.454Z,78.40
2017-05-27T04:43:52.408Z,78.70
2017-05-27T04:46:21.380Z,78.60
2017-05-27T04:48:50.754Z,77.80
2017-05-27T04:51:19.778Z,78.30
2017-05-27T04:53:48.735Z,77.60
2017-05-27T04:56:18.107Z,77.70
2017-05-27T04:58:47.081Z,77.20
2017-05-27T05:01:16.054Z,77.20
2017-05-27T05:03:45.440Z,77.00
2017-05-27T05:06:14.445Z,76.90
2017-05-27T05:08:43.405Z,76.70
2017-05-27T05:11:12.725Z,76.50
2017-05-27T05:13:41.687Z,75.80
2017-05-27T05:16:10.639Z,76.00
2017-05-27T05:18:39.995Z,76.10
2017-05-27T05:21:08.951Z,75.60
2017-05-27T05:23:37.918Z,74.90
2017-05-27T05:26:07.256Z,74.10
2017-05-27T05:28:36.403Z,73.40
2017-05-27T05:31:05.384Z,70.60
2017-05-27T05:33:34.748Z,69.00
2017-05-27T05:36:03.717Z,67.70
2017-05-27T05:38:32.670Z,66.40
2017-05-27T05:41:02.074Z,65.30
2017-05-27T05:43:31.049Z,63.10
2017-05-27T05:46:00.005Z,60.10
2017-05-27T05:48:29.334Z,59.30
2017-05-27T05:50:58.399Z,57.30
2017-05-27T05:53:27.396Z,54.20
2017-05-27T05:55:56.700Z,54.20
2017-05-27T05:58:25.659Z,51.60
2017-05-27T06:00:54.617Z,52.50
2017-05-27T06:03:23.996Z,51.20
2017-05-27T06:05:52.973Z,50.90
2017-05-27T06:08:21.970Z,49.90
2017-05-27T06:10:51.367Z,48.30
2017-05-27T06:13:20.443Z,46.70
2017-05-27T06:15:49.441Z,46.50
2017-05-27T06:18:18.758Z,46.20
2017-05-27T06:20:47.740Z,45.80
2017-05-27T06:23:17.124Z,47.30
2017-05-27T06:38:46.616Z,55.60
2017-05-27T06:41:15.558Z,57.00
2017-05-27T06:43:44.546Z,57.10
2017-05-27T06:46:13.942Z,58.00
2017-05-27T06:48:42.895Z,57.90
2017-05-27T06:51:11.910Z,57.30
2017-05-27T06:53:41.307Z,58.80
2017-05-27T06:56:10.356Z,60.00
2017-05-27T06:58:39.337Z,59.90
2017-05-27T07:01:08.704Z,59.80
2017-05-27T07:03:37.672Z,60.50
2017-05-27T07:06:06.633Z,60.00
2017-05-27T07:08:35.951Z,59.80
2017-05-27T07:11:04.937Z,60.50
2017-05-27T07:13:33.887Z,59.80
2017-05-27T07:16:03.287Z,60.90
2017-05-27T07:18:32.233Z,60.00
2017-05-27T07:21:01.177Z,60.60
2017-05-27T07:23:30.497Z,59.80
2017-05-27T07:25:59.454Z,60.10
2017-05-27T07:28:28.450Z,59.80
2017-05-27T07:30:57.836Z,61.80
2017-05-27T07:33:26.900Z,60.30
2017-05-27T07:35:55.915Z,61.30
2017-05-27T07:38:25.440Z,60.00
2017-05-27T07:40:54.403Z,60.60
2017-05-27T07:43:23.368Z,60.00
2017-05-27T07:45:52.719Z,60.60
2017-05-27T07:48:21.684Z,59.50
2017-05-27T07:50:50.671Z,59.20
2017-05-27T07:53:19.993Z,59.70
2017-05-27T07:55:48.963Z,59.30
2017-05-27T07:58:17.942Z,60.30
2017-05-27T08:00:47.282Z,58.80
2017-05-27T08:03:16.269Z,60.30
2017-05-27T08:05:45.224Z,58.70
2017-05-27T08:08:14.551Z,58.60
2017-05-27T08:10:43.529Z,59.10
2017-05-27T08:13:12.483Z,58.70
2017-05-27T08:15:41.781Z,58.90
2017-05-27T08:18:10.713Z,57.70
2017-05-27T08:20:39.668Z,58.30
2017-05-27T08:23:09.033Z,56.50
2017-05-27T08:25:38.084Z,57.00
2017-05-27T08:28:07.038Z,56.70
2017-05-27T08:30:36.389Z,56.70
2017-05-27T08:33:11.012Z,56.80
2017-05-27T08:35:40.334Z,57.70
2017-05-27T08:38:09.266Z,56.50
2017-05-27T08:40:38.225Z,56.20
2017-05-27T08:43:07.622Z,56.40
2017-05-27T08:45:36.590Z,55.20
2017-05-27T08:48:05.575Z,56.10
2017-05-27T08:50:34.903Z,56.10
2017-05-27T08:53:03.908Z,57.30
2017-05-27T08:55:32.869Z,54.90
2017-05-27T08:58:02.199Z,55.50
2017-05-27T09:00:31.176Z,53.00
2017-05-27T09:03:00.155Z,53.50
2017-05-27T09:05:29.471Z,51.30
2017-05-27T09:07:58.425Z,53.20
2017-05-27T09:10:27.383Z,52.40
2017-05-27T09:12:56.854Z,52.30
2017-05-27T09:15:25.819Z,52.50
2017-05-27T09:17:54.827Z,53.30
2017-05-27T09:20:24.256Z,51.90
2017-05-27T09:22:53.275Z,50.60
2017-05-27T09:25:22.247Z,50.70
2017-05-27T09:27:51.694Z,51.20
2017-05-27T09:30:20.709Z,50.30
2017-05-27T09:32:49.786Z,49.30
2017-05-27T09:35:19.283Z,48.00
2017-05-27T09:37:48.260Z,48.20
2017-05-27T09:40:17.310Z,49.00
2017-05-27T09:42:46.634Z,48.70
2017-05-27T09:45:15.669Z,49.70
2017-05-27T09:47:44.640Z,50.60
2017-05-27T09:50:14.102Z,50.40
2017-05-27T09:52:43.090Z,49.00
2017-05-27T09:55:12.071Z,49.40
2017-05-27T09:57:41.502Z,48.10
2017-05-27T10:00:10.476Z,49.30
2017-05-27T10:02:39.494Z,49.40
2017-05-27T10:05:08.848Z,48.00
2017-05-27T10:07:37.793Z,49.70
2017-05-27T10:10:06.755Z,48.70
2017-05-27T10:12:36.189Z,46.70
2017-05-27T10:15:05.159Z,46.50
2017-05-27T10:17:34.146Z,46.10
2017-05-27T10:20:03.538Z,47.10
2017-05-27T10:22:32.507Z,45.10
2017-05-27T10:25:01.508Z,45.20
2017-05-27T10:27:30.935Z,45.50
2017-05-27T10:29:59.945Z,45.80
2017-05-27T10:32:28.967Z,45.20
2017-05-27T10:34:58.282Z,45.20
2017-05-27T10:37:27.375Z,44.20
2017-05-27T10:39:56.362Z,46.20
2017-05-27T10:42:25.718Z,46.10
2017-05-27T10:44:53.911Z,46.10
2017-05-27T10:47:22.874Z,44.50
2017-05-27T10:49:52.264Z,44.90
2017-05-27T10:52:21.245Z,46.20
2017-05-27T10:54:50.231Z,43.70
2017-05-27T10:57:19.531Z,46.00
2017-05-27T10:59:48.480Z,45.60
2017-05-27T11:02:17.461Z,45.70
2017-05-27T11:04:46.883Z,44.30
2017-05-27T11:07:15.849Z,42.00
2017-05-27T11:09:44.992Z,43.40
2017-05-27T11:12:14.375Z,43.10
2017-05-27T11:14:43.348Z,45.20
2017-05-27T11:17:12.318Z,43.70
2017-05-27T11:19:41.826Z,45.00
2017-05-27T11:22:10.910Z,43.00
2017-05-27T11:24:39.874Z,43.00
2017-05-27T11:27:09.246Z,44.10
2017-05-27T11:29:38.210Z,43.00
2017-05-27T11:32:07.182Z,43.50
2017-05-27T11:34:36.667Z,43.90
2017-05-27T11:37:05.697Z,44.00
2017-05-27T11:39:34.681Z,44.60
2017-05-27T11:42:04.057Z,43.60
2017-05-27T11:44:33.022Z,44.80
2017-05-27T11:47:02.011Z,42.70
2017-05-27T11:49:31.324Z,43.50
2017-05-27T11:52:00.298Z,41.90
2017-05-27T11:54:29.248Z,40.60
2017-05-27T11:56:58.647Z,41.20
2017-05-27T11:59:27.623Z,40.00
2017-05-27T12:01:56.583Z,40.70
2017-05-27T12:04:26.037Z,41.30
2017-05-27T12:06:55.042Z,40.80
2017-05-27T12:09:24.014Z,42.60
2017-05-27T12:11:53.395Z,42.40
2017-05-27T12:14:22.386Z,41.70
2017-05-27T12:16:51.354Z,42.00
2017-05-27T12:19:20.730Z,42.30
2017-05-27T12:21:49.705Z,40.90
2017-05-27T12:24:18.679Z,42.40
2017-05-27T12:26:48.055Z,41.60
2017-05-27T12:29:17.021Z,41.60
2017-05-27T12:31:46.077Z,39.50
2017-05-27T12:34:15.440Z,40.70
2017-05-27T12:36:44.409Z,40.80
2017-05-27T12:39:13.370Z,39.30
2017-05-27T12:41:42.813Z,39.60
2017-05-27T12:44:11.771Z,40.90
2017-05-27T12:46:39.987Z,41.00
2017-05-27T12:49:09.416Z,39.30
2017-05-27T12:51:38.376Z,40.10
2017-05-27T12:54:07.355Z,41.10
2017-05-27T12:56:36.650Z,40.00
2017-05-27T12:59:05.621Z,37.40
2017-05-27T13:01:34.593Z,38.60
2017-05-27T13:04:04.000Z,39.80
2017-05-27T13:06:32.967Z,39.20
2017-05-27T13:09:01.934Z,39.20
2017-05-27T13:11:31.343Z,37.00
2017-05-27T13:14:00.326Z,37.50
2017-05-27T13:16:29.281Z,38.30
2017-05-27T13:18:58.598Z,39.20
2017-05-27T13:21:27.639Z,38.80
2017-05-27T13:23:56.604Z,38.80
2017-05-27T13:26:25.154Z,38.80
2017-05-27T13:28:54.180Z,35.50
2017-05-27T13:31:23.158Z,35.60
2017-05-27T13:33:52.562Z,35.80
2017-05-27T13:36:21.530Z,34.90
2017-05-27T13:38:50.527Z,33.40
2017-05-27T13:41:19.998Z,36.00
2017-05-27T13:43:49.012Z,36.00
2017-05-27T13:46:18.043Z,35.40
2017-05-27T13:48:47.490Z,35.40
2017-05-27T13:51:16.439Z,34.10
2017-05-27T13:53:45.415Z,34.30
2017-05-27T13:56:14.741Z,34.30
2017-05-27T13:58:43.705Z,34.70
2017-05-27T14:01:12.670Z,34.50
2017-05-27T14:03:42.138Z,34.30
2017-05-27T14:06:11.095Z,34.30
2017-05-27T14:08:40.060Z,34.80
2017-05-27T14:11:09.407Z,34.20
2017-05-27T14:13:38.370Z,34.50
2017-05-27T14:16:06.591Z,34.40
2017-05-27T14:18:36.006Z,35.80
2017-05-27T14:21:05.014Z,34.80
2017-05-27T14:23:34.013Z,34.20
2017-05-27T14:26:03.484Z,35.10
2017-05-27T14:28:32.473Z,35.70
2017-05-27T14:31:01.474Z,34.10
2017-05-27T14:33:30.951Z,35.60
2017-05-27T14:35:59.976Z,35.10
2017-05-27T14:38:28.952Z,35.70
2017-05-27T14:40:58.273Z,34.80
2017-05-27T14:43:27.239Z,33.40
2017-05-27T14:45:56.205Z,33.30
2017-05-27T14:48:25.651Z,34.20
2017-05-27T14:50:54.612Z,33.70
2017-05-27T14:53:22.840Z,34.40
2017-05-27T14:55:52.291Z,33.20
2017-05-27T14:58:21.288Z,33.70
2017-05-27T15:00:50.329Z,33.40
2017-05-27T15:03:19.770Z,33.30
2017-05-27T15:05:48.742Z,34.00
2017-05-27T15:08:17.694Z,32.70
2017-05-27T15:10:47.079Z,33.40
2017-05-27T15:13:16.101Z,33.40
2017-05-27T15:15:45.099Z,33.20
2017-05-27T15:18:14.583Z,33.30
2017-05-27T15:20:43.640Z,32.60
2017-05-27T15:23:12.704Z,34.30
2017-05-27T15:25:42.146Z,33.50
2017-05-27T15:28:11.127Z,34.10
2017-05-27T15:30:40.142Z,34.90
2017-05-27T15:33:09.516Z,32.70
2017-05-27T15:35:38.536Z,33.80
2017-05-27T15:38:07.600Z,33.80
2017-05-27T15:40:37.083Z,35.30
2017-05-27T15:43:06.086Z,33.70
2017-05-27T15:45:35.045Z,33.90
2017-05-27T15:48:04.399Z,34.00
2017-05-27T15:50:33.371Z,34.20
2017-05-27T15:53:02.301Z,34.50
2017-05-27T15:55:31.642Z,32.70
2017-05-27T15:58:00.617Z,34.00
2017-05-27T16:00:29.617Z,34.40
2017-05-27T16:02:58.973Z,33.50
2017-05-27T16:05:27.938Z,33.90
2017-05-27T16:07:56.895Z,35.40
2017-05-27T16:10:26.252Z,33.50
2017-05-27T16:12:54.486Z,33.50
2017-05-27T16:15:23.439Z,34.20
2017-05-27T16:17:52.775Z,33.20
2017-05-27T16:20:21.767Z,33.40
2017-05-27T16:22:50.748Z,33.30
2017-05-27T16:25:20.093Z,34.40
2017-05-27T16:27:49.060Z,34.60
2017-05-27T16:30:18.030Z,33.50
2017-05-27T16:32:47.385Z,33.30
2017-05-27T16:35:16.387Z,33.90
2017-05-27T16:37:45.390Z,33.20
2017-05-27T16:40:14.804Z,32.70
2017-05-27T16:42:43.811Z,34.20
2017-05-27T16:45:12.768Z,33.30
2017-05-27T16:47:42.348Z,33.40
2017-05-27T16:50:11.303Z,34.20
2017-05-27T16:52:40.291Z,34.00
2017-05-27T16:55:09.841Z,33.90
2017-05-27T16:57:38.821Z,33.70
2017-05-27T17:00:07.794Z,34.20
2017-05-27T17:02:37.263Z,34.00
2017-05-27T17:05:06.243Z,34.20
2017-05-27T17:07:35.239Z,34.40
2017-05-27T17:10:04.664Z,34.90
2017-05-27T17:12:33.687Z,33.40
2017-05-27T17:15:02.884Z,33.50
2017-05-27T17:17:32.334Z,34.30
2017-05-27T17:20:01.294Z,33.60
2017-05-27T17:22:30.271Z,34.40
2017-05-27T17:24:59.599Z,34.90
2017-05-27T17:27:28.561Z,34.70
2017-05-27T17:29:57.604Z,35.30
2017-05-27T17:32:27.090Z,34.60
2017-05-27T17:34:56.086Z,35.60
2017-05-27T17:37:25.145Z,35.60
2017-05-27T17:39:54.579Z,35.20
2017-05-27T17:42:23.548Z,36.00
2017-05-27T17:44:52.507Z,36.40
2017-05-27T17:47:21.975Z,36.60
2017-05-27T17:49:50.944Z,34.40
2017-05-27T17:52:19.904Z,32.30
2017-05-27T17:54:49.279Z,31.30
2017-05-27T17:57:18.249Z,29.80
2017-05-27T17:59:47.233Z,29.10
2017-05-27T18:02:16.597Z,28.40
2017-05-27T18:04:45.552Z,28.10
2017-05-27T18:07:14.520Z,28.20
2017-05-27T18:09:43.938Z,27.80
2017-05-27T18:12:12.954Z,27.30
2017-05-27T18:14:41.968Z,26.90
2017-05-27T18:17:11.281Z,26.50
2017-05-27T18:19:40.303Z,26.80
2017-05-27T18:22:12.304Z,26.80
2017-05-27T18:24:41.339Z,28.40
2017-05-27T18:27:10.335Z,30.00
2017-05-27T18:29:39.751Z,32.70
2017-05-27T18:32:08.773Z,33.30
2017-05-27T18:34:37.771Z,34.60
2017-05-27T18:37:07.136Z,36.00
2017-05-27T18:39:36.071Z,36.80
2017-05-27T18:42:05.027Z,37.60
2017-05-27T18:44:34.423Z,39.00
2017-05-27T18:47:03.441Z,39.70
2017-05-27T18:49:32.436Z,40.50
2017-05-27T18:52:01.876Z,40.00
2017-05-27T18:54:30.817Z,41.20
2017-05-27T18:56:59.786Z,41.20
2017-05-27T18:59:29.291Z,41.40
2017-05-27T19:01:58.269Z,41.90
2017-05-27T19:04:27.268Z,42.00
2017-05-27T19:06:56.599Z,42.30
2017-05-27T19:09:25.561Z,42.70
2017-05-27T19:11:54.546Z,43.00
2017-05-27T19:14:23.888Z,44.20
2017-05-27T19:16:53.031Z,44.10
2017-05-27T19:19:21.998Z,44.60
2017-05-27T19:21:51.356Z,43.80
2017-05-27T19:24:20.334Z,44.10
2017-05-27T19:26:49.303Z,44.60
2017-05-27T19:29:18.651Z,44.50
2017-05-27T19:31:47.639Z,44.60
2017-05-27T19:34:16.592Z,45.60
2017-05-27T19:36:45.949Z,45.50
2017-05-27T19:39:14.939Z,45.40
2017-05-27T19:41:43.932Z,45.10
2017-05-27T19:44:13.297Z,45.60
2017-05-27T19:46:42.264Z,45.40
2017-05-27T19:49:11.258Z,46.50
2017-05-27T19:51:40.575Z,45.70
2017-05-27T19:54:09.528Z,45.70
2017-05-27T19:56:38.489Z,46.50
2017-05-27T19:59:07.878Z,46.60
2017-05-27T20:01:36.883Z,46.40
2017-05-27T20:04:05.899Z,47.30
2017-05-27T20:06:35.354Z,47.00
2017-05-27T20:09:04.326Z,47.10
2017-05-27T20:11:33.306Z,47.00
2017-05-27T20:14:02.753Z,47.60
2017-05-27T20:16:31.720Z,48.00
2017-05-27T20:19:00.690Z,48.20
2017-05-27T20:21:30.158Z,48.50
2017-05-27T20:23:59.142Z,49.10
2017-05-27T20:26:28.194Z,50.40
2017-05-27T20:28:57.603Z,49.50
2017-05-27T20:31:26.707Z,49.70
2017-05-27T20:33:55.697Z,50.00
2017-05-27T20:36:25.000Z,49.90
2017-05-27T20:38:53.964Z,50.00
2017-05-27T20:41:23.053Z,51.00
2017-05-27T20:43:52.416Z,50.90
2017-05-27T20:46:21.383Z,50.90
2017-05-27T20:48:50.349Z,50.80
2017-05-27T20:51:19.678Z,51.10
2017-05-27T20:53:48.686Z,51.60
2017-05-27T20:56:17.694Z,52.00
2017-05-27T20:58:47.029Z,51.30
2017-05-27T21:01:16.011Z,51.80
2017-05-27T21:03:45.013Z,52.20
2017-05-27T21:06:14.479Z,52.70
2017-05-27T21:08:43.511Z,52.80
2017-05-27T21:11:12.481Z,54.00
2017-05-27T21:13:41.820Z,54.30
2017-05-27T21:16:10.888Z,54.50
2017-05-27T21:18:39.918Z,55.00
2017-05-27T21:21:09.367Z,54.90
2017-05-27T21:23:38.387Z,55.00
2017-05-27T21:26:07.390Z,54.60
2017-05-27T21:28:36.805Z,54.90
2017-05-27T21:31:05.843Z,55.40
2017-05-27T21:33:34.793Z,55.90
2017-05-27T21:36:04.191Z,56.80
2017-05-27T21:38:33.182Z,57.00
2017-05-27T21:41:02.174Z,55.90
2017-05-27T21:43:31.571Z,55.90
2017-05-27T21:46:00.547Z,55.90
2017-05-27T21:48:29.527Z,56.10
2017-05-27T21:50:58.997Z,56.20
2017-05-27T21:53:28.060Z,56.70
2017-05-27T21:55:57.019Z,56.40
2017-05-27T21:58:26.439Z,57.30
2017-05-27T22:00:55.382Z,57.10
2017-05-27T22:03:24.363Z,57.30
2017-05-27T22:05:53.752Z,57.30
2017-05-27T22:08:22.723Z,56.90
2017-05-27T22:10:51.795Z,57.50
2017-05-27T22:13:21.319Z,57.80
2017-05-27T22:15:50.314Z,58.20
2017-05-27T22:18:19.313Z,57.10
2017-05-27T22:20:48.702Z,58.10
2017-05-27T22:23:17.691Z,58.10
2017-05-27T22:25:46.654Z,58.10
2017-05-27T22:28:16.006Z,58.10
2017-05-27T22:30:45.005Z,58.00
2017-05-27T22:33:13.962Z,58.00
2017-05-27T22:35:43.373Z,58.40
2017-05-27T22:38:12.359Z,59.00
2017-05-27T22:40:41.313Z,58.60
2017-05-27T22:43:10.685Z,58.40
2017-05-27T22:45:39.692Z,59.10
2017-05-27T22:48:08.731Z,58.70
2017-05-27T22:50:38.223Z,60.10
2017-05-27T22:53:07.188Z,60.20
2017-05-27T22:55:36.177Z,60.10
2017-05-27T22:58:05.534Z,59.70
2017-05-27T23:00:34.518Z,60.60
2017-05-27T23:03:03.479Z,60.10
2017-05-27T23:05:32.938Z,61.20
2017-05-27T23:08:01.902Z,61.20
2017-05-27T23:10:30.892Z,61.00
2017-05-27T23:13:00.322Z,62.40
2017-05-27T23:15:29.277Z,61.10
2017-05-27T23:17:58.230Z,60.70
2017-05-27T23:20:27.637Z,60.90
2017-05-27T23:22:56.604Z,60.50
2017-05-27T23:25:25.576Z,61.60
2017-05-27T23:27:54.992Z,60.20
2017-05-27T23:30:23.957Z,61.40
2017-05-27T23:32:52.914Z,60.90
2017-05-27T23:35:22.279Z,60.40
2017-05-27T23:37:51.238Z,59.80
2017-05-27T23:40:20.202Z,60.50
2017-05-27T23:42:49.547Z,60.50
2017-05-27T23:45:18.549Z,60.20
2017-05-27T23:47:47.535Z,60.20
2017-05-27T23:50:16.933Z,59.40
2017-05-27T23:52:45.976Z,59.70
2017-05-27T23:55:14.923Z,60.10
2017-05-27T23:57:44.340Z,59.40
